Anahy, Brazil
Current Conditions -  °F | °C
As of 4:00 AM on Saturday 29 Nov 2014 (Local Time) from SBCA Reporting Station
Scattered Clouds Scattered Clouds  
Wind Chill: 66°   Ceiling: Unl
Heat Index: 66°   Visibility: 6mi
Dew Point: 57°   Wind: 23mph
Humidity: 73%   Direction: 70°ENE
Pressure: 29.97"   Gusts: NA
Location:  24.72°S, 53.08°W
Report Text: SBCA 290600Z 07020KT 9999 FEW005 SCT100 19/14 Q1015
Loading
Personal Weather Stations






























Interactive Weather Map New forecast layout! Learn more

10-Day Weather Forecast

Advertisements
Track Severe Weather on mobile